Time;durP1;ratioP1;P1;durP2;ratioP2;P2;SDS_P1;SDS_P2;PMS_P1;PMS_P2;Temp;Humidity;BMP_temperature;BMP_pressure;BME280_temperature;BME280_humidity;BME280_pressure;Samples;Min_cycle;Max_cycle;Signal;HPM_P1;HPM_P2
2022/05/07 00:01:56;;;;;;;4.00;3.70;;;;;;;14.34;64.49;100141.06;5133290;27;20190;-73
2022/05/07 00:04:23;;;;;;;6.10;4.07;;;;;;;14.31;65.00;100146.81;5134447;27;20189;-73
2022/05/07 00:06:51;;;;;;;4.27;3.77;;;;;;;14.31;65.06;100147.66;5133923;27;20243;-72
2022/05/07 00:09:18;;;;;;;5.73;3.87;;;;;;;14.28;65.24;100148.06;5134262;27;20308;-72
2022/05/07 00:11:47;;;;;;;5.30;3.77;;;;;;;14.23;65.35;100150.53;5133676;27;20190;-72
2022/05/07 00:14:14;;;;;;;6.33;3.60;;;;;;;14.15;65.55;100149.84;5133548;27;20281;-72
2022/05/07 00:19:25;;;;;;;4.53;4.10;;;;;;;14.02;66.33;100136.47;5133479;27;20258;-73
2022/05/07 00:21:53;;;;;;;3.87;3.67;;;;;;;13.92;66.88;100142.19;5133865;27;20197;-73
2022/05/07 00:24:19;;;;;;;5.67;4.30;;;;;;;13.89;67.04;100139.91;5133558;27;20226;-73
2022/05/07 00:26:46;;;;;;;6.77;4.33;;;;;;;13.89;66.82;100137.25;5133264;27;20239;-73
2022/05/07 00:29:13;;;;;;;5.40;4.13;;;;;;;13.85;66.69;100133.31;5133429;27;20369;-72
2022/05/07 00:31:40;;;;;;;6.30;3.83;;;;;;;13.92;66.01;100131.50;5133747;27;20273;-72
2022/05/07 00:34:06;;;;;;;5.07;4.60;;;;;;;13.98;66.01;100130.72;5134272;27;20277;-72
2022/05/07 00:36:33;;;;;;;7.00;4.17;;;;;;;14.01;66.00;100132.97;5133079;27;20592;-72
2022/05/07 00:39:02;;;;;;;4.50;3.90;;;;;;;14.05;65.45;100136.06;5133359;27;20267;-72
2022/05/07 00:41:28;;;;;;;5.83;4.57;;;;;;;14.08;65.50;100136.47;5133008;27;20239;-72
2022/05/07 00:43:55;;;;;;;4.97;4.50;;;;;;;14.09;65.52;100127.44;5134167;27;20194;-72
2022/05/07 00:46:25;;;;;;;6.03;5.43;;;;;;;14.13;65.57;100128.66;5134112;27;20217;-72
2022/05/07 00:48:52;;;;;;;5.17;4.60;;;;;;;14.13;65.31;100127.88;5133161;27;20247;-72
2022/05/07 00:51:33;;;;;;;4.57;4.17;;;;;;;14.13;66.13;100125.19;5134065;27;20262;-72
2022/05/07 00:54:03;;;;;;;6.47;4.60;;;;;;;14.09;66.37;100122.09;5132894;27;20174;-72
2022/05/07 00:56:30;;;;;;;4.60;4.20;;;;;;;14.06;67.06;100122.50;5133185;27;20197;-72
2022/05/07 00:58:58;;;;;;;6.57;5.20;;;;;;;13.98;67.56;100125.38;5133133;27;20196;-72
2022/05/07 01:01:25;;;;;;;5.77;4.50;;;;;;;13.87;67.95;100125.13;5133144;27;20186;-73
2022/05/07 01:03:52;;;;;;;5.00;4.53;;;;;;;13.79;68.52;100122.63;5133085;27;20194;-73
2022/05/07 01:06:20;;;;;;;4.93;4.53;;;;;;;13.58;69.42;100118.28;5132710;27;20185;-72
2022/05/07 01:08:47;;;;;;;4.93;4.53;;;;;;;13.43;70.22;100120.25;5133009;27;20563;-74
2022/05/07 01:11:16;;;;;;;5.40;4.93;;;;;;;13.40;70.25;100125.97;5133985;27;20225;-74
2022/05/07 01:13:44;;;;;;;4.40;4.00;;;;;;;13.29;71.14;100129.22;5138088;27;20190;-74
2022/05/07 01:16:12;;;;;;;6.80;4.60;;;;;;;13.13;72.06;100129.56;5137741;27;20239;-74
2022/05/07 01:18:40;;;;;;;5.23;4.93;;;;;;;12.90;72.96;100126.28;5137099;27;20276;-76
2022/05/07 01:21:12;;;;;;;7.53;4.83;;;;;;;12.81;73.41;100127.47;5137306;27;20193;-75
2022/05/07 01:23:41;;;;;;;10.50;5.53;;;;;;;12.70;73.74;100122.66;5136803;27;20671;-76
2022/05/07 01:26:08;;;;;;;9.13;5.00;;;;;;;12.66;74.14;100126.72;5137604;27;20276;-74
2022/05/07 01:28:34;;;;;;;8.90;5.37;;;;;;;12.58;74.20;100123.41;5136621;27;20190;-75
2022/05/07 01:31:01;;;;;;;5.90;4.40;;;;;;;12.50;74.69;100118.22;5136383;27;20253;-73
2022/05/07 01:33:28;;;;;;;7.43;5.23;;;;;;;12.42;75.10;100119.16;5136387;27;20786;-73
2022/05/07 01:35:55;;;;;;;5.27;4.70;;;;;;;12.41;75.54;100112.19;5136515;27;20622;-73
2022/05/07 01:38:23;;;;;;;6.03;4.80;;;;;;;12.50;75.54;100115.53;5136761;27;20193;-73
2022/05/07 01:40:49;;;;;;;6.30;5.20;;;;;;;12.51;75.25;100112.69;5136414;27;20666;-73
2022/05/07 01:43:16;;;;;;;5.73;5.10;;;;;;;12.55;75.72;100116.63;5136301;27;20655;-73
2022/05/07 01:45:43;;;;;;;6.47;4.83;;;;;;;12.59;75.50;100120.56;5137191;27;20238;-72
2022/05/07 01:48:11;;;;;;;4.80;4.40;;;;;;;12.63;75.14;100121.81;5137192;27;20226;-72
2022/05/07 01:50:39;;;;;;;7.07;5.63;;;;;;;12.65;75.01;100119.75;5137024;27;20225;-73
2022/05/07 01:53:08;;;;;;;5.57;5.03;;;;;;;12.63;75.26;100123.63;5136151;27;20222;-73
2022/05/07 01:55:36;;;;;;;5.67;5.13;;;;;;;12.57;75.09;100122.56;5136104;27;20657;-73
2022/05/07 01:58:03;;;;;;;6.00;5.40;;;;;;;12.46;75.78;100128.41;5136313;27;20186;-73
2022/05/07 02:00:30;;;;;;;8.97;5.40;;;;;;;12.34;76.31;100127.31;5137197;27;20246;-72
2022/05/07 02:02:57;;;;;;;9.53;5.03;;;;;;;12.26;76.58;100119.44;5136303;27;20229;-72
2022/05/07 02:05:25;;;;;;;6.47;5.30;;;;;;;12.27;77.29;100134.41;5136124;27;20195;-73
2022/05/07 02:07:52;;;;;;;5.40;5.03;;;;;;;12.19;77.08;100121.22;5136328;27;20285;-72
2022/05/07 02:10:19;;;;;;;7.17;5.03;;;;;;;12.27;76.83;100126.41;5136011;27;20222;-73
2022/05/07 02:12:47;;;;;;;6.27;5.23;;;;;;;12.33;76.65;100122.97;5135945;27;20186;-73
2022/05/07 02:15:14;;;;;;;6.27;5.10;;;;;;;12.35;76.95;100128.13;5135635;27;20190;-72
2022/05/07 02:17:41;;;;;;;6.80;5.80;;;;;;;12.39;76.58;100124.06;5135656;27;20743;-72
2022/05/07 02:20:08;;;;;;;5.87;5.27;;;;;;;12.39;76.87;100124.88;5135423;27;20668;-73
2022/05/07 02:22:35;;;;;;;7.67;4.90;;;;;;;12.33;76.16;100122.19;5135097;27;20186;-72
2022/05/07 02:25:03;;;;;;;7.20;5.53;;;;;;;12.38;76.76;100128.59;5135465;27;20208;-73
2022/05/07 02:27:30;;;;;;;6.93;5.90;;;;;;;12.40;76.55;100131.03;5135274;27;20747;-72
2022/05/07 02:29:58;;;;;;;8.40;5.40;;;;;;;12.45;76.60;100115.31;5135378;27;20641;-72
2022/05/07 02:32:24;;;;;;;6.40;5.80;;;;;;;12.48;75.93;100125.56;5135444;27;20220;-72
2022/05/07 02:34:51;;;;;;;6.87;5.30;;;;;;;12.49;75.37;100117.38;5135174;27;20228;-72
2022/05/07 02:37:18;;;;;;;6.53;5.90;;;;;;;12.50;76.06;100116.34;5135280;27;20193;-72
2022/05/07 02:39:44;;;;;;;9.47;6.23;;;;;;;12.50;76.13;100121.69;5135098;27;20227;-72
2022/05/07 02:44:58;;;;;;;10.03;5.87;;;;;;;12.38;76.93;100117.91;5135100;27;20230;-71
2022/05/07 02:47:25;;;;;;;6.13;5.53;;;;;;;12.39;76.90;100103.56;5134832;27;20190;-71
2022/05/07 02:49:52;;;;;;;8.70;6.23;;;;;;;12.44;76.65;100110.97;5134876;27;20263;-71
2022/05/07 02:52:18;;;;;;;6.63;6.17;;;;;;;12.48;76.43;100114.91;5135354;27;20276;-70
2022/05/07 02:54:45;;;;;;;13.03;6.23;;;;;;;12.49;75.61;100113.91;5134960;27;20189;-72
2022/05/07 02:57:12;;;;;;;10.47;6.83;;;;;;;12.50;75.74;100126.22;5136275;27;20560;-73
2022/05/07 02:59:39;;;;;;;8.30;6.73;;;;;;;12.52;75.87;100125.00;5134854;27;20623;-72
2022/05/07 03:02:08;;;;;;;13.50;6.53;;;;;;;12.52;76.46;100127.66;5134636;27;20580;-72
2022/05/07 03:04:35;;;;;;;7.10;6.50;;;;;;;12.54;76.65;100130.13;5135544;27;20275;-70
2022/05/07 03:07:02;;;;;;;7.43;6.23;;;;;;;12.53;76.45;100129.28;5134720;27;20190;-70
2022/05/07 03:09:28;;;;;;;11.03;6.57;;;;;;;12.52;76.23;100129.50;5135182;27;20271;-70
2022/05/07 03:11:55;;;;;;;6.87;6.27;;;;;;;12.44;77.25;100129.63;5135207;27;20189;-71
2022/05/07 03:14:22;;;;;;;6.67;6.17;;;;;;;12.39;76.81;100124.88;5134910;27;20239;-71
2022/05/07 03:16:49;;;;;;;6.80;6.27;;;;;;;12.37;77.58;100131.44;5134524;27;20727;-70
2022/05/07 03:19:17;;;;;;;8.20;6.17;;;;;;;12.41;76.50;100133.50;5134502;27;20642;-71
2022/05/07 03:21:44;;;;;;;9.60;6.23;;;;;;;12.44;76.21;100126.97;5134780;27;20208;-70
2022/05/07 03:24:10;;;;;;;6.47;5.97;;;;;;;12.47;76.53;100127.41;5135264;27;20201;-70
2022/05/07 03:26:37;;;;;;;7.23;6.40;;;;;;;12.50;76.87;100131.53;5134714;27;20598;-71
2022/05/07 03:29:04;;;;;;;7.27;6.07;;;;;;;12.52;76.85;100135.66;5134638;27;20190;-71
2022/05/07 03:31:31;;;;;;;8.20;6.13;;;;;;;12.54;77.44;100125.59;5134365;27;20222;-71
2022/05/07 03:33:58;;;;;;;8.93;6.40;;;;;;;12.57;77.60;100127.09;5134399;27;20189;-71
2022/05/07 03:36:26;;;;;;;6.93;6.30;;;;;;;12.58;76.57;100129.53;5133946;27;20197;-72
2022/05/07 03:38:52;;;;;;;7.10;6.50;;;;;;;12.57;77.09;100137.75;5135264;27;20197;-72
2022/05/07 03:41:20;;;;;;;9.50;6.47;;;;;;;12.54;76.94;100138.94;5134008;27;20251;-72
2022/05/07 03:43:46;;;;;;;8.33;6.60;;;;;;;12.58;77.82;100134.88;5134375;27;20190;-72
2022/05/07 03:46:13;;;;;;;9.67;6.57;;;;;;;12.64;76.76;100136.78;5133975;27;20731;-72
2022/05/07 03:48:40;;;;;;;9.70;7.23;;;;;;;12.67;76.86;100136.41;5133903;27;20237;-72
2022/05/07 03:51:07;;;;;;;10.40;6.47;;;;;;;12.79;77.52;100142.84;5133777;27;20214;-72
2022/05/07 03:53:35;;;;;;;13.07;6.70;;;;;;;13.04;76.64;100140.56;5133982;27;20548;-72
2022/05/07 03:56:04;;;;;;;9.83;6.20;;;;;;;13.54;74.04;100149.03;5133539;27;20233;-73
2022/05/07 03:58:31;;;;;;;10.03;5.90;;;;;;;14.10;71.60;100150.44;5133689;27;20282;-73
2022/05/07 04:00:59;;;;;;;7.77;5.20;;;;;;;14.82;68.42;100155.88;5133551;27;20193;-74
2022/05/07 04:03:26;;;;;;;6.03;5.07;;;;;;;15.03;66.33;100169.84;5133618;27;20247;-73
2022/05/07 04:05:54;;;;;;;5.30;4.80;;;;;;;15.10;65.01;100170.66;5133532;27;20190;-72
2022/05/07 04:08:23;;;;;;;5.33;4.63;;;;;;;15.25;64.66;100168.59;5133603;27;20554;-72
2022/05/07 04:10:51;;;;;;;5.63;4.83;;;;;;;15.31;64.62;100173.09;5133360;27;20213;-73
2022/05/07 04:13:18;;;;;;;6.27;5.23;;;;;;;15.52;62.73;100178.19;5133583;27;20239;-72
2022/05/07 04:15:45;;;;;;;4.90;4.50;;;;;;;15.82;62.14;100181.19;5133223;27;20667;-72
2022/05/07 04:18:13;;;;;;;5.80;5.27;;;;;;;16.22;60.93;100188.00;5133361;27;20662;-74
2022/05/07 04:20:40;;;;;;;6.07;4.83;;;;;;;16.56;59.13;100184.06;5133305;27;20684;-72
2022/05/07 04:23:07;;;;;;;5.07;4.60;;;;;;;16.64;58.37;100183.81;5133419;27;20197;-73
2022/05/07 04:25:34;;;;;;;5.07;4.57;;;;;;;16.50;58.60;100184.94;5133383;27;20190;-72
2022/05/07 04:28:02;;;;;;;5.47;4.93;;;;;;;16.47;58.48;100190.75;5132990;27;20251;-73
2022/05/07 04:30:29;;;;;;;7.83;4.50;;;;;;;16.61;58.70;100186.94;5132934;27;20581;-73
2022/05/07 04:32:56;;;;;;;10.53;5.30;;;;;;;16.88;58.46;100188.34;5133037;27;20234;-73
2022/05/07 04:35:24;;;;;;;7.97;4.97;;;;;;;17.04;57.94;100203.91;5133105;27;20200;-73
2022/05/07 04:37:50;;;;;;;6.47;5.57;;;;;;;17.24;56.81;100199.19;5133357;27;20194;-73
2022/05/07 04:40:17;;;;;;;5.73;4.87;;;;;;;17.79;56.15;100198.16;5133115;27;20190;-74
2022/05/07 04:42:44;;;;;;;5.67;5.20;;;;;;;18.54;53.29;100203.78;5133323;27;20192;-72
2022/05/07 04:45:13;;;;;;;4.67;4.37;;;;;;;19.50;50.82;100215.84;5132731;27;20686;-73
2022/05/07 04:47:40;;;;;;;5.07;4.57;;;;;;;20.41;47.57;100219.38;5132299;27;20583;-72
2022/05/07 04:50:07;;;;;;;14.50;5.47;;;;;;;21.00;44.79;100218.00;5133215;27;20186;-73
2022/05/07 04:52:34;;;;;;;11.07;5.20;;;;;;;21.59;42.73;100209.16;5132733;27;20624;-73
2022/05/07 04:55:02;;;;;;;7.27;5.43;;;;;;;21.88;40.76;100210.63;5133193;27;20246;-73
2022/05/07 04:57:30;;;;;;;9.13;4.77;;;;;;;21.83;41.11;100207.03;5132910;27;20186;-73
2022/05/07 04:59:56;;;;;;;4.80;4.50;;;;;;;21.70;40.62;100202.84;5132091;27;20686;-75
2022/05/07 05:02:25;;;;;;;5.60;5.00;;;;;;;21.49;41.62;100211.72;5132416;27;20194;-75
2022/05/07 05:04:52;;;;;;;10.50;5.90;;;;;;;21.81;41.33;100209.19;5132416;27;20722;-76
2022/05/07 05:07:19;;;;;;;7.33;6.10;;;;;;;22.33;40.22;100208.44;5132583;27;20663;-75
2022/05/07 05:09:45;;;;;;;6.60;6.10;;;;;;;23.01;38.56;100208.59;5132528;27;20190;-75
2022/05/07 05:12:12;;;;;;;6.43;5.83;;;;;;;23.02;38.07;100212.91;5132689;27;20270;-73
2022/05/07 05:17:24;;;;;;;5.60;5.20;;;;;;;22.96;36.99;100186.88;5132599;28;20181;-75
2022/05/07 05:19:51;;;;;;;44.03;9.73;;;;;;;23.08;37.08;100206.44;5132234;27;20697;-75
2022/05/07 05:22:18;;;;;;;5.43;5.00;;;;;;;23.07;37.22;100210.25;5132599;27;20246;-73
2022/05/07 05:24:44;;;;;;;10.33;5.03;;;;;;;23.11;36.73;100211.34;5132552;27;20194;-73
2022/05/07 05:27:11;;;;;;;5.63;5.23;;;;;;;22.72;37.61;100201.00;5132622;27;20198;-73
2022/05/07 05:29:38;;;;;;;5.80;5.33;;;;;;;22.40;37.85;100203.66;5132637;27;20193;-72
2022/05/07 05:32:05;;;;;;;5.80;5.30;;;;;;;22.00;39.07;100205.91;5132219;27;20218;-74
2022/05/07 05:34:34;;;;;;;6.30;5.70;;;;;;;21.20;41.66;100206.69;5132725;27;20255;-77
2022/05/07 05:37:00;;;;;;;9.93;6.43;;;;;;;21.05;42.71;100204.56;5132343;27;20243;-76
2022/05/07 05:39:27;;;;;;;20.10;6.57;;;;;;;20.82;42.70;100204.69;5132719;27;20251;-81
2022/05/07 05:41:54;;;;;;;6.30;5.80;;;;;;;20.76;43.25;100210.25;5132274;27;20194;-71
2022/05/07 05:44:20;;;;;;;12.43;6.10;;;;;;;20.54;44.27;100208.25;5132457;27;20655;-71
2022/05/07 05:46:47;;;;;;;5.47;5.03;;;;;;;20.39;46.09;100205.28;5132606;27;20246;-70
2022/05/07 05:49:14;;;;;;;12.30;6.20;;;;;;;20.02;46.14;100211.28;5130377;27;20274;-69
2022/05/07 05:51:42;;;;;;;8.70;6.27;;;;;;;19.90;45.96;100210.50;5131028;28;20214;-69
2022/05/07 05:54:08;;;;;;;6.53;6.03;;;;;;;19.62;48.05;100213.97;5130500;27;20221;-70
2022/05/07 05:56:35;;;;;;;11.13;6.50;;;;;;;19.56;47.68;100214.09;5132487;27;20242;-70
2022/05/07 05:59:02;;;;;;;9.93;7.10;;;;;;;19.36;49.49;100192.09;5134044;27;20663;-72
2022/05/07 06:01:28;;;;;;;6.77;6.27;;;;;;;19.18;48.70;100211.03;5135270;27;20198;-73
2022/05/07 06:03:55;;;;;;;6.37;5.23;;;;;;;19.37;52.04;100212.56;5132347;27;20200;-74
2022/05/07 06:06:22;;;;;;;12.67;6.70;;;;;;;19.48;48.48;100211.75;5134948;27;20969;-73
2022/05/07 06:08:50;;;;;;;14.30;5.67;;;;;;;19.17;47.34;100209.38;5135552;27;20208;-76
2022/05/07 06:11:17;;;;;;;6.57;5.83;;;;;;;19.38;47.11;100211.53;5135045;27;20274;-77
2022/05/07 06:13:45;;;;;;;8.27;5.83;;;;;;;19.58;46.84;100214.66;5135379;27;20192;-77
2022/05/07 06:16:11;;;;;;;6.57;5.80;;;;;;;19.62;45.72;100215.84;5132624;27;20262;-74
2022/05/07 06:18:38;;;;;;;7.97;5.77;;;;;;;19.91;46.32;100214.81;5136803;27;20655;-76
2022/05/07 06:21:05;;;;;;;6.07;5.13;;;;;;;19.88;44.98;100218.00;5135631;27;20242;-72
2022/05/07 06:23:33;;;;;;;5.83;4.90;;;;;;;20.00;44.41;100216.09;5141299;27;20262;-79
2022/05/07 06:28:45;;;;;;;6.07;5.50;;;;;;;21.18;42.67;100217.72;5151377;27;20258;-76
2022/05/07 06:31:11;;;;;;;6.50;5.90;;;;;;;21.27;41.25;100228.97;5128815;27;20225;-75
2022/05/07 06:33:39;;;;;;;5.93;5.03;;;;;;;20.85;41.79;100222.28;5134624;27;20190;-75
2022/05/07 06:36:07;;;;;;;6.67;5.23;;;;;;;20.77;42.61;100218.09;5133422;27;20898;-75
2022/05/07 06:38:34;;;;;;;5.47;5.10;;;;;;;21.43;41.78;100207.28;5132333;27;20194;-76
2022/05/07 06:41:03;;;;;;;6.53;5.23;;;;;;;22.07;40.36;100209.25;5119993;27;20584;-74
2022/05/07 06:43:30;;;;;;;7.50;6.00;;;;;;;22.07;39.15;100216.53;5107977;28;20190;-79
2022/05/07 06:45:57;;;;;;;5.57;5.13;;;;;;;21.95;38.98;100216.69;5109164;28;20215;-79
2022/05/07 06:48:24;;;;;;;6.77;4.90;;;;;;;22.19;39.58;100215.34;5150423;27;20300;-69
2022/05/07 06:50:50;;;;;;;4.97;4.60;;;;;;;22.49;40.28;100215.69;5153287;27;20242;-71
2022/05/07 06:53:17;;;;;;;6.30;5.63;;;;;;;22.33;38.28;100224.69;5152521;27;20189;-68
2022/05/07 06:55:58;;;;;;;6.10;5.50;;;;;;;22.05;39.76;100221.41;5153033;27;20208;-68
2022/05/07 06:58:29;;;;;;;7.07;6.37;;;;;;;21.98;39.98;100221.59;5152091;27;20212;-68
2022/05/07 07:00:56;;;;;;;9.17;5.83;;;;;;;21.76;39.21;100204.53;5152870;27;20184;-68
2022/05/07 07:03:24;;;;;;;15.87;5.63;;;;;;;21.89;39.71;100220.38;5152908;27;20570;-67
2022/05/07 07:05:52;;;;;;;7.63;5.40;;;;;;;22.34;38.22;100220.91;5153463;27;20185;-68
2022/05/07 07:08:20;;;;;;;8.30;5.27;;;;;;;22.19;38.63;100220.75;5152976;27;20679;-68
2022/05/07 07:10:48;;;;;;;5.70;5.40;;;;;;;22.52;38.15;100211.66;5142866;27;20255;-67
2022/05/07 07:13:16;;;;;;;4.90;4.50;;;;;;;22.97;37.22;100214.78;5130792;27;20656;-68
2022/05/07 07:15:44;;;;;;;6.00;5.43;;;;;;;23.18;36.70;100217.38;5130981;27;20729;-69
2022/05/07 07:18:12;;;;;;;5.70;5.17;;;;;;;23.37;36.08;100221.34;5131211;27;20190;-68
2022/05/07 07:20:40;;;;;;;6.07;5.27;;;;;;;23.52;36.13;100217.91;5132050;27;20194;-68
2022/05/07 07:23:10;;;;;;;5.23;4.83;;;;;;;23.84;35.68;100210.47;5130740;27;20194;-70
2022/05/07 07:25:36;;;;;;;6.83;5.57;;;;;;;23.69;35.58;100216.63;5130517;27;20286;-71
2022/05/07 07:28:03;;;;;;;7.00;5.20;;;;;;;23.74;36.21;100213.97;5129760;27;20217;-70
2022/05/07 07:30:30;;;;;;;6.70;6.13;;;;;;;23.79;35.23;100208.56;5130340;27;20259;-70
2022/05/07 07:32:58;;;;;;;5.93;5.37;;;;;;;23.87;36.07;100208.06;5130552;27;20273;-69
2022/05/07 07:35:24;;;;;;;6.57;5.13;;;;;;;23.85;34.97;100204.78;5130191;27;20196;-68
2022/05/07 07:37:51;;;;;;;7.93;4.97;;;;;;;23.74;35.68;100211.25;5131467;27;20249;-71
2022/05/07 07:40:18;;;;;;;8.03;5.60;;;;;;;23.44;35.85;100211.06;5132596;27;20193;-71
2022/05/07 07:42:45;;;;;;;6.03;5.60;;;;;;;23.29;35.81;100208.28;5132735;27;20203;-70
2022/05/07 07:47:59;;;;;;;5.80;5.07;;;;;;;23.32;35.49;100196.91;5133019;27;20226;-68
2022/05/07 07:50:29;;;;;;;5.97;5.43;;;;;;;23.14;36.56;100194.59;5132943;27;20198;-68
2022/05/07 07:52:57;;;;;;;6.60;5.97;;;;;;;22.56;37.18;100205.47;5132779;27;20222;-69
2022/05/07 07:55:24;;;;;;;5.07;4.67;;;;;;;22.60;37.81;100198.47;5132552;27;20187;-69
2022/05/07 07:57:54;;;;;;;11.33;5.20;;;;;;;22.94;36.82;100196.31;5133369;27;20195;-70
2022/05/07 08:00:21;;;;;;;5.67;5.20;;;;;;;23.10;36.11;100204.31;5133229;27;20277;-69
2022/05/07 08:02:48;;;;;;;6.40;5.60;;;;;;;23.31;35.45;100206.13;5133478;27;20195;-68
2022/05/07 08:05:17;;;;;;;5.50;5.00;;;;;;;23.47;34.77;100199.72;5133429;27;20264;-68
2022/05/07 08:13:12;;;;;;;14.90;5.50;;;;;;;23.72;34.91;100199.00;5133179;27;20723;-69
2022/05/07 08:15:39;;;;;;;9.43;5.60;;;;;;;23.81;34.85;100195.53;5133016;27;20256;-68
2022/05/07 08:18:06;;;;;;;6.93;5.20;;;;;;;23.74;34.63;100205.84;5132619;27;20199;-70
2022/05/07 08:20:35;;;;;;;6.30;5.17;;;;;;;23.93;34.77;100192.66;5132254;27;20250;-69
2022/05/07 08:23:01;;;;;;;9.13;5.47;;;;;;;24.09;34.21;100192.41;5133017;27;20236;-68
2022/05/07 08:25:28;;;;;;;8.43;5.60;;;;;;;23.72;34.40;100170.00;5132641;27;20253;-69
2022/05/07 08:27:55;;;;;;;5.87;5.37;;;;;;;24.05;34.43;100190.50;5133065;27;20200;-69
2022/05/07 08:30:21;;;;;;;5.60;5.10;;;;;;;24.11;34.11;100192.97;5132839;27;20189;-69
2022/05/07 08:32:48;;;;;;;6.93;6.20;;;;;;;24.41;33.94;100184.88;5132927;27;20224;-69
2022/05/07 08:35:15;;;;;;;6.13;5.00;;;;;;;24.79;33.47;100180.91;5132641;27;20192;-68
2022/05/07 08:37:43;;;;;;;5.80;5.20;;;;;;;24.77;33.30;100186.59;5133229;27;20189;-68
2022/05/07 08:40:14;;;;;;;5.73;5.10;;;;;;;25.02;32.60;100194.75;5133319;27;20186;-68
2022/05/07 08:42:41;;;;;;;6.90;6.27;;;;;;;25.18;32.74;100194.75;5133668;27;20201;-68
2022/05/07 08:45:08;;;;;;;8.20;6.03;;;;;;;25.53;32.35;100179.19;5132326;27;20189;-68
2022/05/07 08:47:35;;;;;;;12.00;9.33;;;;;;;25.64;32.35;100179.97;5132251;27;20229;-68
2022/05/07 08:50:02;;;;;;;10.70;9.67;;;;;;;25.07;33.79;100190.38;5132853;27;20185;-69
2022/05/07 08:52:30;;;;;;;6.93;6.40;;;;;;;25.34;33.20;100178.13;5132365;27;20567;-69
2022/05/07 08:54:58;;;;;;;6.80;6.17;;;;;;;25.31;33.45;100183.31;5132375;28;20190;-68
2022/05/07 08:57:26;;;;;;;7.20;6.47;;;;;;;25.50;33.41;100166.13;5132638;28;20190;-68
2022/05/07 08:59:52;;;;;;;6.37;5.77;;;;;;;25.70;32.56;100171.50;5132644;28;20297;-69
2022/05/07 09:02:20;;;;;;;7.07;5.37;;;;;;;25.72;32.75;100172.00;5132446;28;20247;-69
2022/05/07 09:04:55;;;;;;;6.20;5.70;;;;;;;25.24;34.08;100163.72;5132401;27;20190;-69
2022/05/07 09:07:22;;;;;;;5.97;5.57;;;;;;;24.88;35.43;100168.38;5132002;28;20184;-69
2022/05/07 09:09:49;;;;;;;6.27;5.67;;;;;;;24.93;35.09;100154.78;5131709;28;20611;-69
2022/05/07 09:12:24;;;;;;;5.47;4.97;;;;;;;25.14;34.27;100164.53;5132166;28;20582;-68
2022/05/07 09:14:51;;;;;;;8.97;4.67;;;;;;;25.35;34.36;100171.59;5132274;28;20265;-68
2022/05/07 09:17:19;;;;;;;5.67;5.00;;;;;;;25.30;33.28;100176.22;5132320;28;20246;-69
2022/05/07 09:19:45;;;;;;;5.00;4.53;;;;;;;24.91;33.66;100173.28;5132353;28;20620;-69
2022/05/07 09:22:12;;;;;;;5.80;4.90;;;;;;;25.11;33.46;100172.44;5132211;28;20227;-69
2022/05/07 09:24:40;;;;;;;4.60;4.30;;;;;;;25.16;32.76;100165.09;5131715;28;20194;-68
2022/05/07 09:27:07;;;;;;;4.73;4.40;;;;;;;25.25;33.50;100168.88;5131903;28;20190;-69
2022/05/07 09:29:35;;;;;;;5.30;4.80;;;;;;;25.41;34.70;100158.78;5131220;28;20698;-69
2022/05/07 09:32:09;;;;;;;4.60;4.30;;;;;;;25.59;33.66;100153.56;5132228;27;20316;-70
2022/05/07 09:37:35;;;;;;;6.23;5.83;;;;;;;25.36;35.02;100153.38;5135935;27;20182;-69
2022/05/07 09:40:05;;;;;;;9.10;5.43;;;;;;;25.31;35.09;100150.69;5135954;27;20182;-69
2022/05/07 09:42:33;;;;;;;5.97;4.40;;;;;;;24.94;34.63;100151.78;5135978;27;20205;-69
2022/05/07 09:45:03;;;;;;;5.97;4.83;;;;;;;24.81;35.65;100146.91;5136169;27;20442;-69
2022/05/07 09:47:30;;;;;;;4.83;4.33;;;;;;;24.80;35.15;100147.97;5135340;27;20608;-68
2022/05/07 09:57:30;;;;;;;7.43;4.50;;;;;;;25.21;33.47;100139.78;5135850;27;20204;-68
2022/05/07 09:58:17;;;;;;;4.00;3.70;;;;;;;25.24;31.83;100144.66;5135764;27;20184;-68
2022/05/07 10:00:58;;;;;;;4.47;3.70;;;;;;;24.73;32.16;100139.31;5135460;27;20709;-68
2022/05/07 10:03:32;;;;;;;4.60;4.20;;;;;;;25.08;32.24;100143.88;5136098;27;20190;-69
2022/05/07 10:06:20;;;;;;;4.67;4.30;;;;;;;25.16;32.85;100120.75;5135876;27;20643;-69
2022/05/07 10:08:58;;;;;;;4.07;3.77;;;;;;;24.79;31.17;100102.88;5136222;27;20186;-70
2022/05/07 10:11:26;;;;;;;4.27;3.97;;;;;;;25.08;32.62;100135.75;5136071;27;20231;-68
2022/05/07 10:13:54;;;;;;;4.17;3.87;;;;;;;24.98;32.19;100119.41;5135506;27;20705;-69
2022/05/07 10:16:23;;;;;;;4.23;3.83;;;;;;;24.90;33.23;100112.66;5135227;27;20726;-68
2022/05/07 10:18:51;;;;;;;6.23;3.47;;;;;;;24.64;33.65;100112.94;5135574;27;20224;-68
2022/05/07 10:21:19;;;;;;;3.67;3.37;;;;;;;24.66;31.13;100122.44;5135753;27;20194;-68
2022/05/07 10:23:51;;;;;;;4.57;3.70;;;;;;;24.64;32.00;100124.63;5135239;27;20288;-68
2022/05/07 10:26:18;;;;;;;6.37;4.50;;;;;;;24.40;33.18;100119.97;5135309;27;20243;-68
2022/05/07 10:28:45;;;;;;;4.67;4.27;;;;;;;24.42;33.00;100099.59;5134995;27;20258;-69
2022/05/07 10:31:23;;;;;;;5.63;4.07;;;;;;;24.98;32.75;100097.66;5134783;27;20746;-68
2022/05/07 10:33:50;;;;;;;4.00;3.70;;;;;;;25.21;31.59;100107.13;5135389;27;20213;-67
2022/05/07 10:36:18;;;;;;;4.10;3.80;;;;;;;25.22;31.31;100087.00;5134822;27;20273;-67
2022/05/07 10:38:46;;;;;;;3.87;3.40;;;;;;;25.42;31.17;100104.09;5135373;27;20197;-67
2022/05/07 10:41:26;;;;;;;4.10;3.37;;;;;;;25.54;30.08;100095.63;5135235;27;20190;-67
2022/05/07 10:44:06;;;;;;;3.90;3.60;;;;;;;25.71;29.75;100096.91;5134105;27;20182;-68
2022/05/07 10:46:45;;;;;;;6.13;5.67;;;;;;;24.68;31.11;100093.13;5134816;27;20182;-68
2022/05/07 10:49:17;;;;;;;5.73;4.73;;;;;;;24.68;30.76;100074.09;5134743;27;20225;-68
2022/05/07 10:51:50;;;;;;;3.70;3.37;;;;;;;24.85;30.94;100071.88;5134510;27;20208;-68
2022/05/07 10:54:19;;;;;;;4.20;3.83;;;;;;;24.69;31.54;100091.19;5134927;27;20186;-68
2022/05/07 10:56:47;;;;;;;5.97;3.63;;;;;;;24.67;31.19;100080.59;5134909;27;20200;-68
2022/05/07 10:59:14;;;;;;;4.13;3.83;;;;;;;24.72;31.18;100083.34;5134929;27;20190;-68
2022/05/07 11:01:42;;;;;;;5.83;3.70;;;;;;;24.18;32.56;100075.97;5134389;27;20628;-68
2022/05/07 11:04:12;;;;;;;8.43;4.00;;;;;;;24.22;33.06;100072.41;5134558;27;20201;-68
2022/05/07 11:06:47;;;;;;;5.37;4.17;;;;;;;24.08;33.38;100065.91;5134116;27;20199;-69
2022/05/07 11:09:19;;;;;;;7.53;4.07;;;;;;;24.16;33.51;100068.09;5134792;27;20271;-68
2022/05/07 11:11:47;;;;;;;8.70;4.83;;;;;;;24.14;33.49;100075.66;5134013;27;20654;-68
2022/05/07 11:14:22;;;;;;;4.80;4.30;;;;;;;24.26;33.57;100059.13;5134553;27;20258;-69
2022/05/07 11:16:51;;;;;;;5.77;5.23;;;;;;;24.31;33.51;100070.81;5134198;27;20225;-68
2022/05/07 11:19:25;;;;;;;5.20;4.77;;;;;;;24.18;33.55;100060.47;5134517;27;20192;-68
2022/05/07 11:21:52;;;;;;;5.10;4.13;;;;;;;24.41;33.88;100057.22;5133879;27;20195;-69
2022/05/07 11:24:20;;;;;;;7.03;4.83;;;;;;;24.20;33.08;100052.88;5133856;27;20197;-69
2022/05/07 11:26:50;;;;;;;4.90;4.13;;;;;;;23.82;34.60;100050.66;5133832;27;20232;-69
2022/05/07 11:29:18;;;;;;;5.90;4.07;;;;;;;23.85;33.30;100055.50;5134036;27;20195;-69
2022/05/07 11:31:56;;;;;;;6.00;5.23;;;;;;;23.65;33.11;100055.47;5133333;27;20196;-69
2022/05/07 11:34:31;;;;;;;4.37;3.80;;;;;;;23.78;33.71;100049.56;5133656;27;20622;-68
2022/05/07 11:37:10;;;;;;;5.80;4.13;;;;;;;23.97;32.32;100058.81;5133827;27;20294;-68
2022/05/07 11:39:50;;;;;;;5.27;4.00;;;;;;;24.11;32.54;100049.09;5133584;27;20188;-67
2022/05/07 11:42:30;;;;;;;5.77;4.23;;;;;;;24.24;32.76;100040.41;5133505;27;20216;-68
2022/05/07 11:47:53;;;;;;;4.73;4.43;;;;;;;24.35;31.97;100055.59;5133511;27;20226;-68
2022/05/07 11:50:22;;;;;;;4.90;4.50;;;;;;;24.37;31.81;100042.56;5133797;27;20287;-68
2022/05/07 11:52:49;;;;;;;4.87;4.47;;;;;;;24.46;31.56;100040.91;5133784;27;20316;-68
2022/05/07 11:55:17;;;;;;;4.10;3.80;;;;;;;24.65;30.83;100038.47;5133411;27;20269;-67
2022/05/07 11:57:46;;;;;;;4.70;4.30;;;;;;;24.81;31.09;100051.78;5133447;27;20200;-69
2022/05/07 12:00:15;;;;;;;4.57;4.00;;;;;;;24.84;30.61;100047.69;5133983;27;20245;-69